PAJN/JNU METAR and TAF weather

Enter ICAO airport designator
Station Type Date Time Source
PAJN METAR 2022/11/26 08:53 UTC NOAA

PAJN 260853Z 12004KT 7SM FEW009 SCT032 BKN085 02/01 A2964 RMK AO2 RAE27PLE12 SLP035 P0001 60001 T00220011 400390006 51018 $


Station Type Date Time Source
PAJN Decoded METAR 2022/11/26 08:53 UTC NOAA

JUNEAU INTERNATIONAL AIRPORT, AK, United States (PAJN) 58-21N 134-34W 8M
Nov 26, 2022 - 03:53 AM EST / 2022.11.26 0853 UTC
Wind: from the ESE (120 degrees) at 5 MPH (4 KT):0
Visibility: 7 mile(s):0
Sky conditions: mostly cloudy
Precipitation last hour: 0.01 inches
Temperature: 36.0 F (2.2 C)
Dew Point: 34.0 F (1.1 C)
Relative Humidity: 92%
Pressure (altimeter): 29.64 in. Hg (1003 hPa)
Pressure tendency: 0.05 inches (1.8 hPa) higher than three hours ago
ob: PAJN 260853Z 12004KT 7SM FEW009 SCT032 BKN085 02/01 A2964 RMK AO2 RAE27PLE12 SLP035 P0001 60001 T00220011 400390006 51018
cycle: 9

Station Type Date Time Source
PAJN TAF 2022/11/26 06:51 UTC NOAA

TAF PAJN 260549Z 2606/2706 11010KT P6SM -RA FEW009 SCT035 OVC045
FM261600 12010KT P6SM VCSH OVC035
FM270000 08010KT P6SM OVC050

Example: see airport list